Mount Zion, North Carolina
Current Conditions -  °F | °C
As of 4:54 PM on Friday 31 Oct 2014 (Local Time) from KGSO Reporting Station
Broken Clouds Broken Clouds  
Wind Chill: 56°   Ceiling: 12000
Heat Index: 56°   Visibility: 10mi
Dew Point: 41°   Wind: 0mph
Humidity: 57%   Direction: NA
Pressure: 29.81"   Gusts: NA
Location:  36.1157°N, 79.7378°W
Report Text: KGSO 312054Z 00000KT 10SM SCT034 BKN120 BKN180 13/05 A2981 RMK AO2 SLP093 T01330050 56019
Loading
Personal Weather Stations






























Interactive Weather Map
Tropical Storm Tracking
New forecast layout! Learn more

10-Day Weather Forecast

Advertisements
Track Severe Weather on mobile